Latest Weather Observations for Lockhart River

IDQ60801

Issued at 3:32 am EST Monday 6 July 2020 (issued every 10 minutes, with the page automatically refreshed every 10 minutes)

About weather observations | Map of weather stations | Latest weather observations for QLD | Other Formats
Station Details ID: 028008 Name: LOCKHART RIVER AIRPORT Lat: -12.79 Lon: 143.30 Height: 18.5 m
Data from the previous 72 hours. | See also: Recent months at Lockhart River
Date/Time
EST
Temp
°C
App
Temp
°C
Dew
Point
°C
Rel
Hum
%
Delta-T
°C
Wind Press
QNH
hPa
Press
MSL
hPa
Rain since
9am
mm
Dir  Spd
km/h
Gust
km/h
Spd
kts
Gust
kts
06/03:30am 23.3 22.5 19.2 78 2.6 SSE 22 33 12 18 1014.3 1014.3 0.0
06/03:00am 23.5 22.3 19.2 77 2.7 SE 24 44 13 24 1014.3 1014.3 0.0
06/02:30am 23.7 22.5 19.2 76 2.9 SE 24 35 13 19 1014.5 1014.5 0.0
06/02:00am 23.8 22.6 19.3 76 2.9 SE 24 33 13 18 1014.7 1014.7 0.0
06/01:30am 23.8 22.2 19.1 75 3.0 SE 26 33 14 18 1014.9 1014.9 0.0
06/01:00am 23.8 21.8 19.1 75 3.0 SE 28 35 15 19 1015.1 1015.1 0.0
06/12:30am 23.8 22.2 19.1 75 3.0 SE 26 39 14 21 1015.4 1015.4 0.0
06/12:00am 23.7 22.1 19.2 76 2.9 SE 26 39 14 21 1015.6 1015.6 0.0
 
Date/Time
EST
Temp
°C
App
Temp
°C
Dew
Point
°C
Rel
Hum
%
Delta-T
°C
Wind Press
QNH
hPa
Press
MSL
hPa
Rain since
9am
mm
Dir  Spd
km/h
Gust
km/h
Spd
kts
Gust
kts
05/11:30pm 23.9 21.5 19.2 75 3.0 SE 30 41 16 22 1015.8 1015.8 0.0
05/11:00pm 24.0 21.7 19.3 75 3.0 SE 30 44 16 24 1016.0 1016.0 0.0
05/10:30pm 24.2 21.4 19.1 73 3.3 SE 32 44 17 24 1016.2 1016.2 0.0
05/10:00pm 24.0 21.1 18.9 73 3.2 SE 32 46 17 25 1016.4 1016.4 0.0
05/09:30pm 23.6 21.4 19.5 78 2.6 SE 30 44 16 24 1016.3 1016.3 0.0
05/09:00pm 24.0 22.0 19.1 74 3.1 SE 28 39 15 21 1016.1 1016.1 0.0
05/08:30pm 24.1 22.0 19.0 73 3.2 SE 28 39 15 21 1015.8 1015.8 0.0
05/08:00pm 23.9 22.2 19.0 74 3.1 SE 26 37 14 20 1015.7 1015.7 0.0
05/07:30pm 23.9 21.7 18.8 73 3.2 SE 28 37 15 20 1015.3 1015.3 0.0
05/07:00pm 23.8 22.7 18.7 73 3.2 SE 22 32 12 17 1014.9 1014.9 0.0
05/06:30pm 23.8 22.2 18.4 72 3.4 SE 24 33 13 18 1014.6 1014.6 0.0
05/06:00pm 24.2 22.2 18.4 70 3.7 SE 26 43 14 23 1014.6 1014.6 0.0
05/05:30pm 24.5 21.8 18.4 69 3.9 SE 30 37 16 20 1014.4 1014.4 0.0
05/05:00pm 24.6 21.5 18.5 69 3.9 SE 32 43 17 23 1014.2 1014.2 0.0
05/04:44pm 24.7 22.2 18.9 70 3.7 SE 30 48 16 26 1014.1 1014.1 0.0
05/04:30pm 25.0 23.3 18.9 69 3.9 SE 26 37 14 20 1014.1 1014.1 0.0
05/04:00pm 25.0 22.4 18.7 68 4.0 SE 30 50 16 27 1014.0 1014.0 0.0
05/03:54pm 25.0 22.3 18.4 66 4.2 SE 30 50 16 27 1014.0 1014.0 0.0
05/03:30pm 24.9 21.9 18.6 68 4.0 SE 32 44 17 24 1014.1 1014.1 0.0
05/03:02pm 25.1 22.8 18.5 67 4.2 SE 28 46 15 25 1014.1 1014.1 0.0
05/03:00pm 25.1 22.8 18.5 67 4.2 SE 28 39 15 21 1014.1 1014.1 0.0
05/02:30pm 25.6 22.5 18.3 64 4.6 SE 32 50 17 27 1014.1 1014.1 0.0
05/02:29pm 25.5 22.3 18.2 64 4.6 SE 32 50 17 27 1014.2 1014.2 0.0
05/02:00pm 25.4 22.4 18.6 66 4.3 SE 32 46 17 25 1014.5 1014.5 0.0
05/01:30pm 25.1 22.2 18.8 68 4.0 SE 32 48 17 26 1014.9 1014.9 0.0
05/01:17pm 25.3 23.0 19.4 70 3.8 SE 30 48 16 26 1015.0 1015.0 0.0
05/01:00pm 25.3 23.4 19.4 70 3.8 SE 28 44 15 24 1015.1 1015.1 0.0
05/12:30pm 24.0 22.8 20.1 79 2.5 SE 26 37 14 20 1015.6 1015.6 0.0
05/12:00pm 23.3 23.9 19.5 79 2.4 S 15 20 8 11 1015.8 1015.8 0.0
05/11:30am 23.2 22.8 19.4 79 2.4 SSE 20 30 11 16 1016.0 1016.0 0.0
05/11:00am 23.2 22.8 19.4 79 2.4 SSE 20 28 11 15 1016.3 1016.3 0.0
05/10:30am 23.1 22.3 19.3 79 2.4 SSE 22 32 12 17 1016.5 1016.5 0.0
05/10:00am 23.0 23.2 19.4 80 2.3 SSE 17 24 9 13 1016.6 1016.6 0.0
05/09:30am 22.6 22.6 19.0 80 2.3 SSE 17 26 9 14 1016.6 1016.6 0.0
05/09:00am 22.5 23.2 18.9 80 2.3 SSE 13 19 7 10 1016.6 1016.6 2.6
05/08:30am 22.2 22.8 18.6 80 2.3 SSE 13 19 7 10 1016.2 1016.2 2.6
05/08:00am 22.3 22.2 18.7 80 2.3 S 17 22 9 12 1015.8 1015.8 2.6
05/07:30am 23.0 22.6 19.0 78 2.5 SSE 19 26 10 14 1015.3 1015.3 2.6
05/07:00am 23.1 22.6 19.1 78 2.5 SSE 20 30 11 16 1015.0 1015.0 2.6
05/06:30am 23.0 22.6 19.0 78 2.5 SSE 19 26 10 14 1014.6 1014.6 2.6
05/06:00am 23.1 22.6 19.1 78 2.5 SSE 20 32 11 17 1014.5 1014.5 2.6
05/05:30am 23.0 22.5 19.2 79 2.4 SSE 20 30 11 16 1014.7 1014.7 2.6
05/05:00am 23.0 22.5 19.2 79 2.4 SSE 20 32 11 17 1014.7 1014.7 2.6
05/04:30am 22.9 22.6 19.1 79 2.4 SE 19 26 10 14 1014.6 1014.6 2.6
05/04:00am 22.9 22.5 19.3 80 2.3 SSE 20 28 11 15 1014.4 1014.4 2.6
05/03:30am 22.9 23.4 19.3 80 2.3 SSE 15 22 8 12 1014.5 1014.5 2.6
05/03:00am 22.7 23.3 19.5 82 2.0 SE 15 20 8 11 1014.7 1014.7 2.6
05/02:30am 22.4 21.9 19.2 82 2.0 SE 20 30 11 16 1014.8 1014.8 2.6
05/02:00am 22.6 22.1 19.2 81 2.2 SSE 20 28 11 15 1015.1 1015.1 2.6
05/01:30am 22.8 22.6 19.4 81 2.2 SSE 19 32 10 17 1015.6 1015.6 2.6
05/01:00am 22.8 22.6 19.4 81 2.2 SSE 19 30 10 16 1015.8 1015.8 2.6
05/12:30am 22.8 22.0 19.2 80 2.3 SSE 22 33 12 18 1016.1 1016.1 2.6
05/12:00am 22.9 22.5 19.3 80 2.3 SE 20 32 11 17 1016.2 1016.2 2.6
 
Date/Time
EST
Temp
°C
App
Temp
°C
Dew
Point
°C
Rel
Hum
%
Delta-T
°C
Wind Press
QNH
hPa
Press
MSL
hPa
Rain since
9am
mm
Dir  Spd
km/h
Gust
km/h
Spd
kts
Gust
kts
04/11:30pm 23.1 22.3 19.3 79 2.4 SSE 22 30 12 16 1016.2 1016.2 2.6
04/11:00pm 23.0 22.3 19.4 80 2.3 SSE 22 30 12 16 1016.4 1016.4 2.6
04/10:30pm 22.7 23.1 19.9 84 1.8 SSE 17 26 9 14 1016.7 1016.7 2.6
04/10:00pm 22.3 22.2 19.5 84 1.8 SSE 19 26 10 14 1016.6 1016.6 2.6
04/09:30pm 22.4 22.3 19.9 86 1.6 SE 20 30 11 16 1016.7 1016.7 2.6
04/09:00pm 23.1 21.8 19.9 82 2.1 SE 26 43 14 23 1016.5 1016.5 2.6
04/08:41pm 23.2 21.8 20.5 85 1.8 SE 28 44 15 24 1016.2 1016.2 2.6
04/08:30pm 22.5 23.1 21.0 91 1.0 SE 19 26 10 14 1016.2 1016.2 2.6
04/08:00pm 22.2 22.9 21.2 94 0.7 SE 19 33 10 18 1015.9 1015.9 2.2
04/07:30pm 22.7 21.4 20.6 88 1.4 SE 28 46 15 25 1015.7 1015.7 1.4
04/07:00pm 22.2 22.8 21.0 93 0.8 SSE 19 28 10 15 1015.4 1015.4 1.4
04/06:30pm 22.2 23.2 21.0 93 0.8 SE 17 32 9 17 1015.4 1015.4 1.4
04/06:00pm 22.5 23.5 21.0 91 1.0 SSE 17 20 9 11 1015.1 1015.1 0.8
04/05:30pm 22.7 24.2 21.2 91 1.0 SSE 15 28 8 15 1014.9 1014.9 0.6
04/05:00pm 22.4 22.8 20.9 91 1.0 SE 20 24 11 13 1014.6 1014.6 0.6
04/04:43pm 22.3 20.5 21.1 93 0.8 SE 32 50 17 27 1014.3 1014.3 0.6
04/04:30pm 23.2 21.5 20.5 85 1.8 SE 30 52 16 28 1014.5 1014.5 0.6
04/04:29pm 23.7 22.3 20.4 82 2.1 SE 28 52 15 28 1014.4 1014.4 0.6
04/04:00pm 24.0 24.4 21.7 87 1.5 SSE 22 30 12 16 1014.4 1014.4 0.6
04/03:30pm 23.6 24.2 21.3 87 1.5 SE 20 28 11 15 1014.5 1014.5 0.6
04/03:00pm 22.5 19.1 21.3 93 0.8 SE 41 61 22 33 1014.6 1014.6 0.6
04/02:52pm 23.9 21.5 20.0 79 2.5 SE 32 61 17 33 1014.4 1014.4 0.2
04/02:30pm 25.5 23.6 21.0 76 3.0 SE 32 44 17 24 1014.5 1014.5 0.2
04/02:00pm 25.8 24.5 20.6 73 3.4 SE 28 46 15 25 1014.4 1014.4 0.2
04/01:59pm 25.7 24.2 20.3 72 3.5 SE 28 46 15 25 1014.4 1014.4 0.2
04/01:30pm 26.3 24.7 20.8 71 3.6 SE 30 44 16 24 1014.8 1014.8 0.2
04/01:08pm 26.5 23.9 20.6 70 3.9 SE 35 54 19 29 1015.1 1015.1 0.2
04/01:00pm 26.4 24.3 20.5 70 3.9 SE 32 41 17 22 1015.0 1015.0 0.2
04/12:43pm 25.9 23.1 20.2 71 3.7 SE 35 54 19 29 1015.2 1015.2 0.2
04/12:30pm 26.0 23.1 20.1 70 3.8 SE 35 50 19 27 1015.3 1015.3 0.2
04/12:00pm 25.7 22.9 20.3 72 3.5 SE 35 48 19 26 1015.8 1015.8 0.0
04/11:49am 26.4 24.2 20.3 69 4.0 ESE 32 50 17 27 1015.9 1015.9 0.0
04/11:35am 25.8 23.1 20.4 72 3.5 SE 35 50 19 27 1016.0 1016.0 0.0
04/11:30am 26.4 24.3 20.5 70 3.9 SE 32 48 17 26 1016.1 1016.1 0.0
04/11:00am 24.9 24.7 22.0 84 1.9 SE 26 39 14 21 1016.4 1016.4 0.0
04/10:56am 24.5 24.0 21.4 83 2.0 SE 26 39 14 21 1016.4 1016.4 0.0
04/10:53am 24.4 24.3 21.5 84 1.9 SSE 24 33 13 18 1016.5 1016.5 0.0
04/10:48am 24.0 23.5 21.5 86 1.7 SSE 26 39 14 21 1016.5 1016.5 0.0
04/10:39am 24.0 23.6 22.3 90 1.1 SE 28 41 15 22 1016.6 1016.6 0.0
04/10:36am 23.8 22.9 22.1 90 1.1 ESE 30 41 16 22 1016.6 1016.6 0.0
04/10:30am 24.2 23.1 21.1 83 2.0 SE 28 39 15 21 1016.5 1016.5 0.0
04/10:03am 23.8 24.5 22.2 91 1.1 SE 22 30 12 16 1016.5 1016.5 0.0
04/10:00am 23.3 23.7 21.7 91 1.1 SE 22 30 12 16 1016.6 1016.6 0.0
04/09:46am 22.6 22.1 20.7 89 1.2 ESE 24 35 13 19 1016.5 1016.5 0.0
04/09:37am 23.2 22.4 20.9 87 1.5 SE 26 39 14 21 1016.6 1016.6 0.0
04/09:30am 23.9 23.3 20.4 81 2.3 SE 24 32 13 17 1016.6 1016.6 0.0
04/09:00am 23.6 22.3 19.9 80 2.4 SE 26 33 14 18 1016.5 1016.5 0.0
04/08:30am 22.8 22.8 20.9 89 1.2 SSE 22 30 12 16 1016.5 1016.5 0.0
04/08:00am 22.1 23.0 20.9 93 0.8 SSE 17 24 9 13 1016.2 1016.2 0.0
04/07:56am 21.8 22.6 20.6 93 0.8 SSE 17 24 9 13 1016.1 1016.1 0.0
04/07:30am 21.5 22.2 20.5 94 0.6 SSE 17 22 9 12 1016.1 1016.1 0.0
04/07:24am 21.3 21.5 20.1 93 0.8 SSE 19 26 10 14 1016.0 1016.0 0.0
04/07:00am 22.7 21.9 20.0 85 1.7 SE 24 32 13 17 1016.1 1016.1 0.0
04/06:58am 22.7 22.2 20.0 85 1.7 SE 22 32 12 17 1016.1 1016.1 0.0
04/06:30am 22.4 22.4 19.8 85 1.7 SSE 19 28 10 15 1015.8 1015.8 0.0
04/06:00am 22.9 22.6 20.4 86 1.6 SE 22 28 12 15 1015.7 1015.7 0.0
04/05:30am 22.7 21.7 19.7 83 1.9 SSE 24 32 13 17 1015.5 1015.5 0.0
04/05:00am 23.1 23.1 20.1 83 1.9 SSE 20 30 11 16 1015.2 1015.2 0.0
04/04:30am 23.4 23.0 20.2 82 2.1 SE 22 32 12 17 1015.3 1015.3 0.0
04/04:00am 23.5 23.3 19.8 80 2.4 SSE 20 30 11 16 1015.4 1015.4 0.0
04/03:30am 23.6 22.6 19.7 79 2.5 SSE 24 32 13 17 1015.5 1015.5 0.0
04/03:00am 23.7 23.2 20.0 80 2.4 SE 22 33 12 18 1016.0 1016.0 0.0
04/02:30am 23.9 23.4 20.0 79 2.5 SE 22 30 12 16 1016.3 1016.3 0.0
04/02:00am 23.8 23.7 19.9 79 2.5 SE 20 30 11 16 1016.5 1016.5 0.0
04/01:30am 23.6 23.6 19.7 79 2.5 SE 19 28 10 15 1016.8 1016.8 0.0
04/01:00am 23.7 23.6 20.0 80 2.4 SE 20 28 11 15 1017.1 1017.1 0.0
04/12:30am 23.9 22.7 20.0 79 2.5 SE 26 33 14 18 1017.3 1017.3 0.0
04/12:00am 23.9 23.7 19.8 78 2.6 SE 20 30 11 16 1017.4 1017.4 0.0
 
Date/Time
EST
Temp
°C
App
Temp
°C
Dew
Point
°C
Rel
Hum
%
Delta-T
°C
Wind Press
QNH
hPa
Press
MSL
hPa
Rain since
9am
mm
Dir  Spd
km/h
Gust
km/h
Spd
kts
Gust
kts
03/11:30pm 23.8 22.7 19.5 77 2.8 SE 24 33 13 18 1017.5 1017.5 0.0
03/11:00pm 23.8 22.8 19.7 78 2.6 SE 24 41 13 22 1017.6 1017.6 0.0
03/10:30pm 23.9 22.5 19.6 77 2.8 SE 26 33 14 18 1017.6 1017.6 0.0
03/10:00pm 23.5 22.3 19.2 77 2.7 SE 24 35 13 19 1017.6 1017.6 0.0
03/09:30pm 23.6 22.7 19.1 76 2.9 SE 22 35 12 19 1017.5 1017.5 0.0
03/09:00pm 23.7 22.5 19.2 76 2.9 SE 24 32 13 17 1017.2 1017.2 0.0
03/08:30pm 23.6 23.1 19.1 76 2.9 SE 20 28 11 15 1017.1 1017.1 0.0
03/08:00pm 23.9 22.2 19.0 74 3.1 SE 26 41 14 22 1016.7 1016.7 0.0
03/07:30pm 23.8 22.7 18.7 73 3.2 SE 22 32 12 17 1016.5 1016.5 0.0
03/07:00pm 23.8 23.1 18.2 71 3.5 SE 19 30 10 16 1016.2 1016.2 0.0
03/06:30pm 24.0 22.3 18.0 69 3.8 SE 24 33 13 18 1015.8 1015.8 0.0
03/06:00pm 24.2 22.9 18.2 69 3.8 SE 22 35 12 19 1015.7 1015.7 0.0
03/05:30pm 25.1 22.6 18.1 65 4.4 SE 28 37 15 20 1015.6 1015.6 0.0
03/05:00pm 25.5 22.2 17.9 63 4.8 SE 32 46 17 25 1015.3 1015.3 0.0
03/04:30pm 25.6 22.8 19.0 67 4.2 SE 32 48 17 26 1015.1 1015.1 0.0
03/04:00pm 26.6 24.9 19.7 66 4.5 SE 28 37 15 20 1015.0 1015.0 0.0
03/03:30pm 26.0 23.3 19.6 68 4.1 SE 33 46 18 25 1014.9 1014.9 0.0
03/03:06pm 26.6 24.4 19.5 65 4.6 SE 30 48 16 26 1014.9 1014.9 0.0
03/03:00pm 26.8 24.5 19.4 64 4.8 SE 30 39 16 21 1015.0 1015.0 0.0
03/02:30pm 26.7 24.5 19.6 65 4.6 SE 30 43 16 23 1015.3 1015.3 0.0
03/02:00pm 26.2 23.0 18.6 63 4.8 SE 33 52 18 28 1015.7 1015.7 0.0
03/01:51pm 26.1 23.1 17.7 60 5.3 SE 30 52 16 28 1015.8 1015.8 0.0
03/01:30pm 26.4 24.0 19.0 63 4.7 SE 30 43 16 23 1016.1 1016.1 0.0
03/01:00pm 27.0 24.4 19.4 63 4.9 SE 32 44 17 24 1016.5 1016.5 0.0
03/12:30pm 27.2 23.7 18.8 60 5.4 SE 35 48 19 26 1016.8 1016.8 0.0
03/12:00pm 27.8 25.3 19.8 61 5.2 SE 32 50 17 27 1017.1 1017.1 0.0
03/11:50am 27.0 24.0 18.6 60 5.4 SE 32 50 17 27 1017.2 1017.2 0.0
03/11:30am 27.5 24.4 18.8 59 5.6 SE 33 46 18 25 1017.4 1017.4 0.0
03/11:00am 27.0 24.0 19.9 65 4.6 SE 35 46 19 25 1017.7 1017.7 0.0
03/10:30am 26.1 23.9 19.5 67 4.3 SE 30 43 16 23 1017.7 1017.7 0.0
03/10:01am 26.1 23.7 20.0 69 4.0 SE 32 50 17 27 1017.6 1017.6 0.0
03/10:00am 25.9 23.1 19.5 68 4.1 SE 33 50 18 27 1017.6 1017.6 0.0
03/09:33am 25.9 23.3 20.0 70 3.8 SE 33 54 18 29 1017.5 1017.5 0.0
03/09:30am 25.9 24.0 20.2 71 3.7 SE 30 44 16 24 1017.5 1017.5 0.0
03/09:00am 25.6 23.8 20.4 73 3.4 SE 30 44 16 24 1017.4 1017.4 1.0
03/08:30am 25.1 23.2 20.1 74 3.2 SE 30 43 16 23 1017.0 1017.0 1.0
03/08:00am 24.8 23.2 20.1 75 3.0 SE 28 43 15 23 1016.5 1016.5 1.0
03/07:30am 24.1 22.7 19.6 76 2.9 SE 26 39 14 21 1016.0 1016.0 1.0
03/07:00am 23.8 22.3 19.5 77 2.8 SE 26 35 14 19 1015.7 1015.7 1.0
03/06:30am 23.8 23.3 19.9 79 2.5 SE 22 32 12 17 1015.4 1015.4 1.0
03/06:00am 23.9 23.1 20.0 79 2.5 SE 24 33 13 18 1015.2 1015.2 1.0
03/05:30am 23.7 23.2 20.0 80 2.4 SE 22 32 12 17 1015.0 1015.0 1.0
03/05:00am 23.6 23.4 19.7 79 2.5 SE 20 32 11 17 1014.8 1014.8 1.0
03/04:30am 23.8 22.5 19.9 79 2.5 SE 26 39 14 21 1014.7 1014.7 1.0
03/04:00am 24.6 23.9 21.1 81 2.3 SE 26 39 14 21 1014.6 1014.6 1.0

Other formats

Comma delimited format used in spreadsheet applications
http://www.bom.gov.au/fwo/IDQ60801/IDQ60801.94186.axf

JavaScript Object Notation format (JSON) in row-major order
http://www.bom.gov.au/fwo/IDQ60801/IDQ60801.94186.json

Data quality

Most of these data are generated automatically and are frequently updated. Quality checks on data are not normally performed. It is possible for incorrect values to appear. Refer to information at About Latest Weather Observations and please check the disclaimer before using these data.